Time;durP1;ratioP1;P1;durP2;ratioP2;P2;SDS_P1;SDS_P2;PMS_P1;PMS_P2;Temp;Humidity;BMP_temperature;BMP_pressure;BME280_temperature;BME280_humidity;BME280_pressure;Samples;Min_cycle;Max_cycle;Signal;HPM_P1;HPM_P2
2023/10/28 00:00:34;;;;;;;3.33;1.90;;;;;;;10.39;100.00;98325.66;4982710;28;20280;-77
2023/10/28 00:02:59;;;;;;;6.00;1.53;;;;;;;10.39;100.00;98325.66;4990249;28;20262;-77
2023/10/28 00:05:24;;;;;;;3.63;1.33;;;;;;;10.37;100.00;98332.69;4991922;28;20540;-77
2023/10/28 00:07:50;;;;;;;5.03;1.53;;;;;;;10.34;100.00;98327.75;4990727;28;20194;-78
2023/10/28 00:10:18;;;;;;;1.93;1.40;;;;;;;10.40;100.00;98326.50;4982223;28;20183;-76
2023/10/28 00:12:43;;;;;;;2.23;1.43;;;;;;;10.44;100.00;98331.25;5004345;28;20176;-77
2023/10/28 00:15:09;;;;;;;6.07;2.23;;;;;;;10.51;100.00;98325.63;4991842;28;20198;-77
2023/10/28 00:17:36;;;;;;;3.70;1.63;;;;;;;10.52;100.00;98332.34;4992212;28;20286;-77
2023/10/28 00:20:05;;;;;;;4.07;1.50;;;;;;;10.53;100.00;98321.97;4988873;28;20659;-75
2023/10/28 00:22:31;;;;;;;1.73;1.43;;;;;;;10.55;100.00;98326.97;4989534;28;20203;-76
2023/10/28 00:24:58;;;;;;;5.00;2.00;;;;;;;10.58;100.00;98324.13;4990252;28;20222;-77
2023/10/28 00:27:23;;;;;;;7.43;1.80;;;;;;;10.55;100.00;98319.25;4991904;28;20190;-77
2023/10/28 00:29:52;;;;;;;4.43;1.50;;;;;;;10.47;100.00;98325.06;4991411;28;20191;-78
2023/10/28 00:32:17;;;;;;;3.30;1.07;;;;;;;10.46;100.00;98323.41;4996796;28;20590;-78
2023/10/28 00:34:43;;;;;;;5.07;1.60;;;;;;;10.42;100.00;98322.00;4991459;28;20192;-76
2023/10/28 00:37:08;;;;;;;5.63;1.40;;;;;;;10.48;100.00;98322.34;4990530;28;20187;-77
2023/10/28 00:39:33;;;;;;;3.07;1.50;;;;;;;10.35;100.00;98316.53;4991446;28;20646;-77
2023/10/28 00:42:01;;;;;;;2.40;1.10;;;;;;;10.39;100.00;98320.50;4995847;28;20301;-76
2023/10/28 00:44:26;;;;;;;6.47;1.27;;;;;;;10.41;100.00;98322.97;4989874;28;20183;-77
2023/10/28 00:46:51;;;;;;;1.73;1.13;;;;;;;10.40;100.00;98322.16;4991850;28;20187;-77
2023/10/28 00:49:17;;;;;;;2.13;1.33;;;;;;;10.30;100.00;98323.81;4991533;28;20183;-77
2023/10/28 00:51:45;;;;;;;2.67;1.10;;;;;;;10.36;100.00;98317.34;4987194;28;20301;-77
2023/10/28 00:54:10;;;;;;;1.57;1.00;;;;;;;10.41;100.00;98322.97;4991487;28;20650;-77
2023/10/28 00:56:37;;;;;;;2.17;1.07;;;;;;;10.56;100.00;98334.56;4993617;28;20215;-77
2023/10/28 00:59:02;;;;;;;1.97;1.20;;;;;;;10.45;100.00;98327.72;4994690;28;20205;-77
2023/10/28 01:01:28;;;;;;;2.53;1.13;;;;;;;10.43;100.00;98324.47;4995358;28;20254;-75
2023/10/28 01:03:54;;;;;;;2.33;1.03;;;;;;;10.49;100.00;98333.44;4998685;28;20223;-79
2023/10/28 01:06:19;;;;;;;2.63;0.97;;;;;;;10.55;100.00;98332.13;4994948;28;20190;-78
2023/10/28 01:08:45;;;;;;;3.20;1.33;;;;;;;10.59;100.00;98333.47;4993208;28;20233;-78
2023/10/28 01:11:10;;;;;;;1.93;1.00;;;;;;;10.73;100.00;98329.75;4986864;28;20254;-77
2023/10/28 01:13:35;;;;;;;1.17;0.90;;;;;;;10.74;100.00;98329.66;4999956;28;20191;-77
2023/10/28 01:16:00;;;;;;;1.10;1.00;;;;;;;10.53;100.00;98332.25;4995186;28;20190;-76
2023/10/28 01:18:26;;;;;;;1.60;1.03;;;;;;;10.56;100.00;98326.84;4993028;28;20612;-77
2023/10/28 01:20:51;;;;;;;0.73;0.73;;;;;;;10.43;100.00;98332.19;4986553;28;20230;-76
2023/10/28 01:23:16;;;;;;;1.20;0.90;;;;;;;10.53;100.00;98332.25;4992107;28;20211;-77
2023/10/28 01:25:41;;;;;;;5.20;0.80;;;;;;;10.60;100.00;98328.22;4993289;28;20242;-77
2023/10/28 01:28:08;;;;;;;1.63;0.60;;;;;;;10.68;100.00;98334.47;4994190;28;20620;-77
2023/10/28 01:30:34;;;;;;;0.87;0.50;;;;;;;10.72;100.00;98336.66;4986344;28;20277;-77
2023/10/28 01:32:59;;;;;;;1.73;0.80;;;;;;;10.72;100.00;98334.09;4991841;28;20179;-78
2023/10/28 01:35:24;;;;;;;0.97;0.90;;;;;;;10.65;100.00;98333.81;4993166;28;20662;-78
2023/10/28 01:37:50;;;;;;;2.00;0.60;;;;;;;10.77;100.00;98326.00;4992882;28;20286;-77
2023/10/28 01:40:17;;;;;;;1.27;0.70;;;;;;;10.72;100.00;98331.53;4984875;28;20524;-77
2023/10/28 01:42:44;;;;;;;1.17;0.60;;;;;;;10.61;100.00;98334.97;4990692;28;20187;-77
2023/10/28 01:45:10;;;;;;;0.93;0.80;;;;;;;10.71;100.00;98335.03;4992720;28;20237;-77
2023/10/28 01:47:37;;;;;;;0.87;0.60;;;;;;;10.67;100.00;98325.97;4994086;28;20187;-77
2023/10/28 01:50:04;;;;;;;0.60;0.60;;;;;;;10.60;100.00;98332.56;4984034;28;20631;-76
2023/10/28 01:52:29;;;;;;;0.70;0.70;;;;;;;10.57;100.00;98332.81;4991565;28;20179;-77
2023/10/28 01:54:55;;;;;;;1.17;0.80;;;;;;;10.58;100.00;98342.13;4992660;28;20234;-77
2023/10/28 01:57:21;;;;;;;0.70;0.70;;;;;;;10.53;100.00;98334.00;4991450;28;20194;-77
2023/10/28 01:59:46;;;;;;;0.57;0.57;;;;;;;10.56;100.00;98331.97;4994128;28;20263;-77
2023/10/28 02:02:11;;;;;;;0.80;0.60;;;;;;;10.64;100.00;98333.91;4997522;28;20233;-77
2023/10/28 02:04:37;;;;;;;2.13;0.50;;;;;;;10.61;100.00;98339.31;4993325;28;20246;-77
2023/10/28 02:07:04;;;;;;;4.00;0.67;;;;;;;10.60;100.00;98341.06;4993595;28;20585;-78
2023/10/28 02:09:33;;;;;;;2.23;0.60;;;;;;;10.69;100.00;98347.19;4993843;28;20194;-76
2023/10/28 02:12:01;;;;;;;1.50;0.67;;;;;;;10.57;100.00;98354.19;4984557;28;20223;-77
2023/10/28 02:14:27;;;;;;;2.70;0.60;;;;;;;10.50;100.00;98355.63;4993676;28;20274;-77
2023/10/28 02:16:53;;;;;;;0.63;0.63;;;;;;;10.58;100.00;98355.00;4992301;28;20270;-77
2023/10/28 02:19:20;;;;;;;3.27;0.60;;;;;;;10.40;100.00;98347.84;4993335;28;20290;-77
2023/10/28 02:21:45;;;;;;;1.30;0.60;;;;;;;10.28;100.00;98356.53;4995363;28;20783;-77
2023/10/28 02:24:10;;;;;;;0.70;0.70;;;;;;;10.12;100.00;98354.38;4991973;28;20203;-77
2023/10/28 02:26:36;;;;;;;0.50;0.40;;;;;;;10.09;100.00;98354.66;4992865;28;20710;-77
2023/10/28 02:29:01;;;;;;;0.90;0.77;;;;;;;10.12;100.00;98360.34;4992113;28;20179;-78
2023/10/28 02:31:27;;;;;;;2.53;0.70;;;;;;;10.08;100.00;98369.22;4992551;28;20214;-78
2023/10/28 02:33:52;;;;;;;0.60;0.60;;;;;;;10.05;100.00;98369.50;4992007;28;20179;-77
2023/10/28 02:36:18;;;;;;;0.63;0.50;;;;;;;10.01;100.00;98370.69;4991717;28;20214;-78
2023/10/28 02:38:43;;;;;;;1.37;0.80;;;;;;;10.01;100.00;98383.53;4992759;28;20207;-77
2023/10/28 02:41:08;;;;;;;0.50;0.50;;;;;;;9.85;100.00;98369.31;4983037;28;20234;-77
2023/10/28 02:43:35;;;;;;;1.63;0.80;;;;;;;9.94;100.00;98374.66;4999577;28;20254;-77
2023/10/28 02:46:01;;;;;;;3.20;0.80;;;;;;;9.90;100.00;98379.22;4991597;28;20179;-77
2023/10/28 02:48:27;;;;;;;0.80;0.80;;;;;;;9.90;100.00;98383.53;4991620;28;20278;-77
2023/10/28 02:50:52;;;;;;;1.40;0.43;;;;;;;9.89;100.00;98385.31;4989156;28;20222;-78
2023/10/28 02:53:18;;;;;;;0.80;0.60;;;;;;;9.84;100.00;98385.66;5001235;28;20194;-78
2023/10/28 02:55:43;;;;;;;2.00;0.80;;;;;;;9.66;100.00;98384.53;4992517;28;20175;-78
2023/10/28 02:58:08;;;;;;;1.10;0.70;;;;;;;9.58;100.00;98387.72;4993044;28;20217;-77
2023/10/28 03:00:33;;;;;;;1.13;0.87;;;;;;;9.57;100.00;98388.63;4985968;28;20333;-78
2023/10/28 03:02:59;;;;;;;3.43;0.83;;;;;;;9.34;100.00;98390.41;4990095;28;20226;-78
2023/10/28 03:05:24;;;;;;;1.03;0.80;;;;;;;9.32;100.00;98390.53;4992955;28;20746;-77
2023/10/28 03:07:53;;;;;;;1.60;1.07;;;;;;;9.13;100.00;98398.00;4991375;28;20186;-78
2023/10/28 03:10:18;;;;;;;1.00;0.80;;;;;;;9.19;100.00;98403.50;4984495;28;20191;-77
2023/10/28 03:12:44;;;;;;;1.90;0.97;;;;;;;9.10;100.00;98404.19;4989168;28;20187;-78
2023/10/28 03:15:10;;;;;;;0.93;0.80;;;;;;;9.16;100.00;98408.84;4992140;28;20175;-78
2023/10/28 03:17:38;;;;;;;2.87;0.90;;;;;;;9.26;100.00;98400.47;4992435;28;20207;-78
2023/10/28 03:20:05;;;;;;;2.90;1.10;;;;;;;9.33;100.00;98406.75;4981350;28;20635;-76
2023/10/28 03:22:31;;;;;;;3.50;1.20;;;;;;;9.53;100.00;98407.78;4989195;28;20195;-78
2023/10/28 03:24:56;;;;;;;3.40;1.47;;;;;;;9.59;100.00;98412.44;4992048;28;20207;-78
2023/10/28 03:27:21;;;;;;;1.93;0.90;;;;;;;9.68;100.00;98404.03;4992761;28;20253;-78
2023/10/28 03:29:49;;;;;;;5.33;1.67;;;;;;;9.71;100.00;98405.53;4992226;28;20187;-77
2023/10/28 03:32:14;;;;;;;4.50;1.20;;;;;;;9.67;100.00;98404.97;4976965;28;20218;-77
2023/10/28 03:34:40;;;;;;;2.50;1.20;;;;;;;9.53;100.00;98406.03;4992342;28;20210;-78
2023/10/28 03:37:05;;;;;;;2.40;1.23;;;;;;;9.53;100.00;98411.16;4992376;28;20653;-77
2023/10/28 03:39:31;;;;;;;3.20;1.10;;;;;;;9.54;100.00;98422.25;4990419;28;21037;-77
2023/10/28 03:41:56;;;;;;;2.17;1.27;;;;;;;9.65;100.00;98411.13;4983134;28;20254;-77
2023/10/28 03:44:21;;;;;;;2.90;1.20;;;;;;;9.67;100.00;98412.69;4990698;28;20584;-77
2023/10/28 03:46:46;;;;;;;4.13;1.50;;;;;;;9.66;100.00;98416.19;4991952;28;20175;-77
2023/10/28 03:49:12;;;;;;;5.03;1.47;;;;;;;9.84;100.00;98426.75;4991833;28;20201;-78
2023/10/28 03:51:38;;;;;;;2.37;1.40;;;;;;;9.76;100.00;98420.59;4993544;28;20225;-78
2023/10/28 03:54:04;;;;;;;3.03;1.17;;;;;;;9.67;100.00;98424.69;4995122;28;20261;-78
2023/10/28 03:56:30;;;;;;;3.60;1.30;;;;;;;9.76;100.00;98425.72;4990637;28;20274;-78
2023/10/28 03:58:55;;;;;;;4.43;1.40;;;;;;;9.78;100.00;98429.78;4991843;28;20289;-78
2023/10/28 04:01:21;;;;;;;1.83;1.40;;;;;;;9.78;100.00;98431.56;4991624;28;20230;-78
2023/10/28 04:03:47;;;;;;;4.47;1.47;;;;;;;9.83;100.00;98435.38;4996356;28;20283;-78
2023/10/28 04:06:12;;;;;;;6.57;1.50;;;;;;;9.82;100.00;98430.38;4992273;28;20577;-78
2023/10/28 04:08:37;;;;;;;3.70;1.27;;;;;;;9.70;100.00;98429.59;4991469;28;20191;-78
2023/10/28 04:11:04;;;;;;;2.67;1.07;;;;;;;9.68;100.00;98437.41;4989927;28;20230;-78
2023/10/28 04:13:30;;;;;;;3.53;1.93;;;;;;;9.71;100.00;98432.97;4990200;28;20191;-78
2023/10/28 04:15:55;;;;;;;3.70;1.37;;;;;;;9.76;100.00;98428.28;4990691;28;20538;-78
2023/10/28 04:18:20;;;;;;;3.87;1.33;;;;;;;9.71;100.00;98425.25;4991598;28;20207;-78
2023/10/28 04:20:47;;;;;;;2.53;1.37;;;;;;;9.68;100.00;98434.81;4983593;28;20234;-77
2023/10/28 04:23:13;;;;;;;2.23;1.37;;;;;;;9.76;100.00;98430.84;4989400;28;20344;-78
2023/10/28 04:25:38;;;;;;;5.40;1.73;;;;;;;9.78;100.00;98427.22;4992670;28;20175;-78
2023/10/28 04:28:04;;;;;;;12.57;1.97;;;;;;;9.89;100.00;98436.66;4995624;28;20305;-77
2023/10/28 04:30:30;;;;;;;4.43;1.60;;;;;;;9.98;100.00;98427.41;4987589;28;20288;-77
2023/10/28 04:32:55;;;;;;;6.60;1.60;;;;;;;9.89;100.00;98425.59;4993388;28;20179;-77
2023/10/28 04:35:20;;;;;;;3.83;2.00;;;;;;;9.94;100.00;98426.03;4995576;28;20205;-77
2023/10/28 04:37:46;;;;;;;3.60;1.50;;;;;;;9.87;100.00;98425.69;4995267;28;20230;-78
2023/10/28 04:40:13;;;;;;;4.30;1.63;;;;;;;9.64;100.00;98435.22;4986617;28;20183;-77
2023/10/28 04:42:38;;;;;;;5.60;1.60;;;;;;;9.45;100.00;98422.94;5008198;28;20189;-77
2023/10/28 04:45:06;;;;;;;3.33;1.47;;;;;;;9.35;100.00;98430.53;4994088;28;20257;-77
2023/10/28 04:47:31;;;;;;;4.63;1.90;;;;;;;9.33;100.00;98430.66;4993824;28;20226;-77
2023/10/28 04:49:57;;;;;;;3.50;1.57;;;;;;;9.20;100.00;98423.09;4995126;28;20207;-77
2023/10/28 04:52:23;;;;;;;5.50;1.90;;;;;;;9.17;100.00;98436.13;4999940;28;20250;-78
2023/10/28 04:54:48;;;;;;;2.60;1.40;;;;;;;9.21;100.00;98429.03;4994825;28;20192;-77
2023/10/28 04:57:13;;;;;;;3.13;1.43;;;;;;;9.14;100.00;98436.38;4995185;28;20192;-78
2023/10/28 04:59:39;;;;;;;4.93;2.00;;;;;;;9.30;100.00;98435.22;4995276;28;20610;-77
2023/10/28 05:02:06;;;;;;;2.73;1.47;;;;;;;9.47;100.00;98433.94;4985680;28;20237;-77
2023/10/28 05:04:32;;;;;;;3.33;1.53;;;;;;;9.45;100.00;98423.78;4994889;28;20265;-77
2023/10/28 05:06:57;;;;;;;2.83;1.30;;;;;;;9.50;100.00;98424.25;4993661;28;20658;-75
2023/10/28 05:09:23;;;;;;;5.67;1.57;;;;;;;9.62;100.00;98419.09;4993947;28;20241;-77
2023/10/28 05:11:56;;;;;;;7.07;1.97;;;;;;;9.66;100.00;98423.88;4986010;28;20321;-76
2023/10/28 05:14:21;;;;;;;6.07;1.70;;;;;;;9.76;100.00;98411.16;4993553;28;20233;-76
2023/10/28 05:16:47;;;;;;;4.03;1.70;;;;;;;9.68;100.00;98416.84;4994916;28;20651;-77
2023/10/28 05:19:12;;;;;;;5.17;1.67;;;;;;;9.74;100.00;98413.00;4994740;28;20302;-78
2023/10/28 05:21:37;;;;;;;3.13;1.50;;;;;;;9.73;100.00;98410.56;4995687;28;20226;-77
2023/10/28 05:24:03;;;;;;;3.37;1.40;;;;;;;9.66;100.00;98418.75;4997948;28;20231;-77
2023/10/28 05:26:28;;;;;;;2.67;1.20;;;;;;;9.51;100.00;98414.78;4994165;28;20532;-76
2023/10/28 05:28:54;;;;;;;7.33;1.40;;;;;;;9.47;100.00;98426.22;4994622;28;20183;-77
2023/10/28 05:31:19;;;;;;;3.87;1.20;;;;;;;9.47;100.00;98429.59;4985742;28;20314;-77
2023/10/28 05:33:45;;;;;;;1.80;1.20;;;;;;;9.62;100.00;98417.34;4999411;28;20183;-76
2023/10/28 05:36:10;;;;;;;2.97;1.60;;;;;;;9.68;100.00;98419.41;4993509;28;20751;-75
2023/10/28 05:38:35;;;;;;;4.20;1.27;;;;;;;9.78;100.00;98418.72;4994024;28;20207;-77
2023/10/28 05:41:00;;;;;;;3.90;1.83;;;;;;;9.75;100.00;98412.06;4985648;28;20231;-76
2023/10/28 05:43:26;;;;;;;2.53;1.30;;;;;;;9.78;100.00;98416.97;4992427;28;20229;-76
2023/10/28 05:45:51;;;;;;;3.73;1.50;;;;;;;9.90;100.00;98419.50;4994164;28;20613;-77
2023/10/28 05:48:17;;;;;;;4.13;1.30;;;;;;;9.81;100.00;98428.75;4994163;28;20237;-77
2023/10/28 05:50:42;;;;;;;5.07;1.40;;;;;;;9.77;100.00;98425.59;4988790;28;20703;-77
2023/10/28 05:53:07;;;;;;;5.23;1.77;;;;;;;9.76;100.00;98428.28;5003726;28;20662;-77
2023/10/28 05:55:33;;;;;;;3.97;1.23;;;;;;;9.82;100.00;98432.94;4993748;28;20624;-77
2023/10/28 05:57:58;;;;;;;5.80;1.90;;;;;;;9.91;100.00;98434.81;4992669;28;20195;-76
2023/10/28 06:00:24;;;;;;;4.77;1.70;;;;;;;9.81;100.00;98433.88;4986489;28;20293;-77
2023/10/28 06:02:49;;;;;;;6.87;1.40;;;;;;;9.97;100.00;98434.31;5005475;28;20223;-78
2023/10/28 06:05:14;;;;;;;4.13;1.90;;;;;;;10.10;100.00;98434.16;4983076;28;20179;-77
2023/10/28 06:07:41;;;;;;;5.77;2.20;;;;;;;10.09;100.00;98442.00;4990046;28;20246;-78
2023/10/28 06:10:10;;;;;;;4.27;1.53;;;;;;;10.20;100.00;98441.16;4983239;28;20180;-76
2023/10/28 06:12:35;;;;;;;3.97;1.83;;;;;;;10.28;100.00;98436.19;4991452;28;20176;-78
2023/10/28 06:15:02;;;;;;;7.97;2.10;;;;;;;10.31;100.00;98443.69;4993629;28;20650;-78
2023/10/28 06:17:27;;;;;;;5.57;1.93;;;;;;;10.26;100.00;98443.22;4992089;28;20884;-78
2023/10/28 06:19:53;;;;;;;7.57;1.73;;;;;;;10.34;100.00;98448.56;4993507;28;20241;-77
2023/10/28 06:22:18;;;;;;;5.60;1.93;;;;;;;10.31;100.00;98459.91;4982363;28;20218;-78
2023/10/28 06:24:43;;;;;;;6.53;1.97;;;;;;;10.23;100.00;98457.13;4993125;28;20207;-78
2023/10/28 06:27:08;;;;;;;6.43;1.90;;;;;;;10.38;100.00;98459.44;4992015;28;20186;-77
2023/10/28 06:29:34;;;;;;;7.00;2.33;;;;;;;10.54;100.00;98464.19;4993651;28;20175;-77
2023/10/28 06:31:59;;;;;;;8.27;2.57;;;;;;;10.42;100.00;98460.81;4997645;28;20234;-77
2023/10/28 06:34:27;;;;;;;9.57;2.20;;;;;;;10.44;100.00;98458.94;4993393;28;20249;-77
2023/10/28 06:36:55;;;;;;;8.40;2.33;;;;;;;10.45;100.00;98465.72;4993046;28;20175;-77
2023/10/28 06:39:21;;;;;;;7.80;2.50;;;;;;;10.50;100.00;98466.16;5004451;28;20226;-77
2023/10/28 06:41:50;;;;;;;6.97;1.73;;;;;;;10.54;100.00;98472.69;4983567;28;20234;-77
2023/10/28 06:44:16;;;;;;;6.10;1.97;;;;;;;10.53;100.00;98471.09;4991408;28;20190;-77
2023/10/28 06:46:41;;;;;;;5.83;1.97;;;;;;;10.58;100.00;98473.25;4992455;28;20179;-77
2023/10/28 06:49:08;;;;;;;7.70;2.30;;;;;;;10.48;100.00;98481.72;4992593;28;20600;-77
2023/10/28 06:51:34;;;;;;;4.53;2.10;;;;;;;10.63;100.00;98476.28;4984052;28;20296;-77
2023/10/28 06:53:59;;;;;;;6.17;2.20;;;;;;;10.54;100.00;98487.31;4996488;28;20523;-77
2023/10/28 06:56:27;;;;;;;6.93;2.10;;;;;;;10.68;100.00;98487.03;4992737;28;20199;-78
2023/10/28 06:58:52;;;;;;;3.80;1.57;;;;;;;10.80;100.00;98480.88;4991051;28;20517;-77
2023/10/28 07:01:19;;;;;;;9.10;2.13;;;;;;;10.70;100.00;98490.28;4992265;28;20309;-77
2023/10/28 07:03:45;;;;;;;5.57;2.07;;;;;;;10.73;100.00;98490.03;4990500;28;20258;-77
2023/10/28 07:06:14;;;;;;;6.20;1.70;;;;;;;10.77;100.00;98488.84;4991417;28;20219;-77
2023/10/28 07:08:42;;;;;;;6.37;1.97;;;;;;;10.78;100.00;98495.63;4992282;28;20259;-76
2023/10/28 07:11:08;;;;;;;8.57;2.50;;;;;;;10.92;100.00;98494.50;4984564;28;20249;-76
2023/10/28 07:13:33;;;;;;;6.97;2.27;;;;;;;10.85;100.00;98501.06;4999056;28;20201;-77
2023/10/28 07:16:03;;;;;;;6.43;1.93;;;;;;;10.88;100.00;98505.97;4991140;28;20183;-77
2023/10/28 07:18:31;;;;;;;7.83;2.00;;;;;;;10.92;100.00;98506.56;4990722;28;20199;-77
2023/10/28 07:20:57;;;;;;;8.17;2.03;;;;;;;10.81;100.00;98510.78;4984272;28;20301;-76
2023/10/28 07:23:26;;;;;;;7.40;1.90;;;;;;;10.91;100.00;98512.63;4999898;28;20203;-77
2023/10/28 07:25:56;;;;;;;6.90;2.17;;;;;;;10.99;100.00;98517.97;4990949;28;20179;-77
2023/10/28 07:28:21;;;;;;;5.87;2.33;;;;;;;11.15;100.00;98512.38;4990930;28;20194;-77
2023/10/28 07:30:50;;;;;;;5.70;2.10;;;;;;;11.18;100.00;98516.47;4963816;28;20234;-77
2023/10/28 07:33:16;;;;;;;6.43;2.13;;;;;;;11.36;100.00;98509.81;4989881;28;20179;-77
2023/10/28 07:35:47;;;;;;;5.07;1.77;;;;;;;11.46;100.00;98510.66;4991003;28;20187;-77
2023/10/28 07:38:12;;;;;;;6.57;1.97;;;;;;;11.55;100.00;98509.06;4991966;28;20304;-77
2023/10/28 07:40:38;;;;;;;5.83;1.93;;;;;;;11.54;100.00;98515.16;4983925;28;20651;-77
2023/10/28 07:43:05;;;;;;;3.30;1.60;;;;;;;11.52;100.00;98523.94;5001859;28;20549;-77
2023/10/28 07:45:30;;;;;;;4.33;1.77;;;;;;;11.77;100.00;98514.97;4990758;28;20197;-77
2023/10/28 07:47:55;;;;;;;6.27;2.20;;;;;;;11.76;100.00;98519.31;4992117;28;20631;-77
2023/10/28 07:50:20;;;;;;;6.67;2.30;;;;;;;11.62;100.00;98527.38;4983548;28;20223;-77
2023/10/28 07:52:46;;;;;;;4.33;1.80;;;;;;;11.81;100.00;98530.97;5003671;28;20627;-77
2023/10/28 07:55:11;;;;;;;7.33;1.90;;;;;;;11.71;100.00;98538.66;4990788;28;20234;-76
2023/10/28 07:57:36;;;;;;;4.77;1.53;;;;;;;11.76;100.00;98545.06;4990321;28;20187;-77
2023/10/28 08:00:05;;;;;;;4.43;1.63;;;;;;;11.98;100.00;98542.47;4991783;28;20211;-75
2023/10/28 08:02:30;;;;;;;4.67;2.10;;;;;;;11.92;100.00;98544.59;5009195;28;20191;-77
2023/10/28 08:04:57;;;;;;;4.53;1.50;;;;;;;12.07;100.00;98544.28;4996036;28;20230;-77
2023/10/28 08:07:23;;;;;;;10.13;2.30;;;;;;;12.18;100.00;98551.88;4994454;28;20266;-77
2023/10/28 08:09:48;;;;;;;7.27;2.03;;;;;;;12.16;100.00;98556.34;4995853;28;20190;-77
2023/10/28 08:12:13;;;;;;;2.83;1.97;;;;;;;12.42;100.00;98551.50;5000544;28;20253;-77
2023/10/28 08:14:39;;;;;;;3.73;1.70;;;;;;;12.36;100.00;98553.81;4994384;28;20183;-78
2023/10/28 08:17:05;;;;;;;7.63;1.70;;;;;;;12.39;100.00;98559.53;4994373;28;20180;-77
2023/10/28 08:19:30;;;;;;;4.03;1.93;;;;;;;12.15;100.00;98562.44;4995774;28;20572;-77
2023/10/28 08:21:55;;;;;;;4.37;1.37;;;;;;;12.14;100.00;98565.16;4998726;28;20260;-77
2023/10/28 08:24:22;;;;;;;3.37;1.20;;;;;;;12.16;100.00;98571.81;4994339;28;20282;-77
2023/10/28 08:26:48;;;;;;;2.87;1.60;;;;;;;12.29;100.00;98575.91;4993644;28;20183;-77
2023/10/28 08:29:14;;;;;;;3.33;1.40;;;;;;;11.98;100.00;98563.88;4995882;28;20213;-77
2023/10/28 08:31:40;;;;;;;4.47;1.57;;;;;;;12.12;100.00;98575.63;4995295;28;20230;-77
2023/10/28 08:34:06;;;;;;;4.00;1.50;;;;;;;12.19;100.00;98569.00;4994347;28;20552;-77
2023/10/28 08:36:34;;;;;;;4.97;2.10;;;;;;;12.24;100.00;98569.41;4993510;28;20183;-77
2023/10/28 08:38:59;;;;;;;4.40;1.47;;;;;;;12.53;100.00;98578.97;4993879;28;20223;-78
2023/10/28 08:41:24;;;;;;;4.90;1.80;;;;;;;12.76;100.00;98568.38;4993915;28;20253;-78
2023/10/28 08:43:51;;;;;;;5.47;1.83;;;;;;;12.99;100.00;98568.94;4999958;28;20639;-77
2023/10/28 08:46:17;;;;;;;3.30;1.80;;;;;;;13.20;100.00;98563.59;4990297;28;20183;-78
2023/10/28 08:48:43;;;;;;;4.90;2.00;;;;;;;13.30;100.00;98560.22;4988808;28;20179;-78
2023/10/28 08:51:11;;;;;;;6.00;1.87;;;;;;;13.22;100.00;98571.22;4993514;28;20218;-78
2023/10/28 08:53:37;;;;;;;7.20;2.20;;;;;;;13.12;100.00;98573.00;4993460;28;20615;-78
2023/10/28 08:56:03;;;;;;;6.47;1.87;;;;;;;13.20;100.00;98580.88;4993491;28;20274;-78
2023/10/28 08:58:29;;;;;;;5.60;2.30;;;;;;;13.06;100.00;98585.50;4993492;28;20497;-77
2023/10/28 09:00:58;;;;;;;8.00;2.17;;;;;;;12.85;100.00;98583.06;4986522;28;20233;-77
2023/10/28 09:03:25;;;;;;;11.73;2.40;;;;;;;13.05;100.00;98588.22;4992454;28;20223;-78
2023/10/28 09:05:52;;;;;;;3.43;1.87;;;;;;;13.02;100.00;98589.31;4981153;28;20190;-77
2023/10/28 09:08:19;;;;;;;7.47;2.07;;;;;;;13.18;100.00;98590.50;4993486;28;20180;-77
2023/10/28 09:10:47;;;;;;;8.83;2.67;;;;;;;13.16;100.00;98593.25;4989664;28;20375;-77
2023/10/28 09:13:13;;;;;;;5.50;1.93;;;;;;;13.06;100.00;98580.34;5002491;28;20224;-78
2023/10/28 09:15:39;;;;;;;5.80;1.83;;;;;;;13.12;100.00;98573.78;4993595;28;20214;-77
2023/10/28 09:18:04;;;;;;;9.10;2.00;;;;;;;13.37;100.00;98566.41;4994503;28;20219;-78
2023/10/28 09:20:30;;;;;;;4.93;2.10;;;;;;;13.81;100.00;98571.91;4988125;28;20250;-78
2023/10/28 09:22:55;;;;;;;10.47;2.47;;;;;;;14.42;100.00;98561.94;5005080;28;20266;-77
2023/10/28 09:25:21;;;;;;;9.17;2.90;;;;;;;16.36;100.00;98568.88;4994451;28;20187;-78
2023/10/28 09:27:47;;;;;;;8.57;2.00;;;;;;;18.17;100.00;98565.31;4992134;28;20191;-77
2023/10/28 09:30:13;;;;;;;3.87;1.50;;;;;;;18.99;97.78;98570.03;4974902;28;20191;-77
2023/10/28 09:32:38;;;;;;;7.77;2.30;;;;;;;19.80;95.14;98576.41;4991518;28;20196;-78
2023/10/28 09:35:05;;;;;;;9.37;2.50;;;;;;;20.95;86.95;98579.31;4994482;28;20191;-78
2023/10/28 09:37:33;;;;;;;5.73;2.13;;;;;;;20.76;83.94;98591.19;4992689;28;20267;-78
2023/10/28 09:40:01;;;;;;;4.43;1.93;;;;;;;20.67;80.04;98594.91;4994115;28;20194;-78
2023/10/28 09:42:30;;;;;;;6.17;2.33;;;;;;;19.78;90.23;98591.41;4998299;28;20251;-78
2023/10/28 09:44:55;;;;;;;4.85;1.95;;;;;;;21.88;75.63;98599.25;4994246;28;20187;-78
2023/10/28 09:47:22;;;;;;;3.80;1.85;;;;;;;21.66;69.39;98606.41;4992512;28;20199;-76
2023/10/28 09:49:53;;;;;;;4.43;2.13;;;;;;;21.66;70.72;98609.00;4992648;28;20175;-77
2023/10/28 09:52:20;;;;;;;7.88;2.05;;;;;;;19.83;88.37;98613.41;4998360;28;20659;-78
2023/10/28 09:54:49;;;;;;;6.37;1.80;;;;;;;19.37;95.21;98616.09;4994108;28;20337;-77
2023/10/28 09:57:14;;;;;;;4.93;1.87;;;;;;;18.94;97.60;98615.81;4992468;28;20643;-77
2023/10/28 09:59:44;;;;;;;5.00;1.90;;;;;;;17.63;100.00;98620.59;4993965;28;20286;-77
2023/10/28 10:02:33;;;;;;;4.73;2.20;;;;;;;16.88;100.00;98611.97;4976415;28;20224;-78
2023/10/28 10:05:05;;;;;;;6.50;2.10;;;;;;;16.39;100.00;98612.69;4979107;28;20191;-76
2023/10/28 10:07:31;;;;;;;9.20;2.27;;;;;;;16.29;100.00;98618.00;5014487;28;20180;-77
2023/10/28 10:10:06;;;;;;;8.07;2.00;;;;;;;15.86;100.00;98606.78;4992116;28;20175;-77
2023/10/28 10:12:31;;;;;;;9.77;2.40;;;;;;;15.49;100.00;98621.59;4965984;28;20223;-77
2023/10/28 10:14:59;;;;;;;5.73;2.10;;;;;;;15.78;100.00;98616.13;4993128;28;20198;-77
2023/10/28 10:17:36;;;;;;;5.23;2.20;;;;;;;15.82;100.00;98614.88;4993501;28;20264;-77
2023/10/28 10:20:04;;;;;;;7.43;2.20;;;;;;;15.98;100.00;98616.72;4992123;28;20179;-74
2023/10/28 10:22:30;;;;;;;8.30;2.47;;;;;;;15.67;100.00;98618.19;4980970;28;20215;-76
2023/10/28 10:24:56;;;;;;;8.77;2.30;;;;;;;15.62;100.00;98629.00;4991608;28;20358;-76
2023/10/28 10:27:40;;;;;;;6.80;2.60;;;;;;;15.58;100.00;98627.66;4991887;28;20232;-76
2023/10/28 10:30:09;;;;;;;4.63;2.07;;;;;;;15.17;100.00;98621.22;4983777;28;20190;-76
2023/10/28 10:32:48;;;;;;;6.47;2.23;;;;;;;15.04;100.00;98628.53;5006543;28;20190;-76
2023/10/28 10:35:33;;;;;;;9.03;2.97;;;;;;;15.27;100.00;98628.91;4982264;28;20183;-77
2023/10/28 10:38:09;;;;;;;6.13;2.17;;;;;;;15.33;100.00;98625.72;4991368;28;20974;-76
2023/10/28 10:40:48;;;;;;;9.37;2.87;;;;;;;15.21;100.00;98618.31;4987259;28;20649;-77
2023/10/28 10:43:19;;;;;;;6.80;1.90;;;;;;;15.08;100.00;98614.34;4991403;28;20557;-77
2023/10/28 10:45:45;;;;;;;8.20;2.57;;;;;;;14.89;100.00;98612.72;5003430;28;20651;-77
2023/10/28 10:48:11;;;;;;;5.50;2.30;;;;;;;15.18;100.00;98622.03;4991683;28;20250;-77
2023/10/28 10:50:37;;;;;;;4.13;1.83;;;;;;;15.03;100.00;98620.94;4987447;28;20226;-76
2023/10/28 10:53:05;;;;;;;7.70;2.10;;;;;;;14.57;100.00;98624.34;5003504;28;20187;-76
2023/10/28 10:55:31;;;;;;;11.60;2.43;;;;;;;14.48;100.00;98620.03;4992773;28;20183;-77
2023/10/28 10:57:59;;;;;;;9.33;2.40;;;;;;;14.35;100.00;98623.78;4991775;28;20201;-76
2023/10/28 11:00:26;;;;;;;9.33;2.23;;;;;;;14.26;100.00;98616.06;4984185;28;20258;-78
2023/10/28 11:02:57;;;;;;;13.03;2.60;;;;;;;14.41;100.00;98613.81;4977980;28;20622;-77
2023/10/28 11:05:22;;;;;;;7.40;2.43;;;;;;;14.66;100.00;98613.16;5007695;28;20187;-76
2023/10/28 11:07:48;;;;;;;7.20;2.33;;;;;;;14.67;100.00;98612.19;4992875;28;20194;-78
2023/10/28 11:10:14;;;;;;;9.90;3.30;;;;;;;14.75;100.00;98602.88;4984032;28;20321;-76
2023/10/28 11:12:41;;;;;;;9.53;2.80;;;;;;;14.83;100.00;98602.94;5005671;28;20479;-77
2023/10/28 11:15:07;;;;;;;7.77;2.60;;;;;;;14.84;100.00;98605.38;4992594;28;20218;-76
2023/10/28 11:17:32;;;;;;;7.30;2.00;;;;;;;14.83;100.00;98605.53;4987910;28;20203;-76
2023/10/28 11:20:02;;;;;;;6.60;1.77;;;;;;;14.85;100.00;98601.03;4981667;28;20890;-76
2023/10/28 11:22:28;;;;;;;10.67;2.37;;;;;;;14.72;100.00;98593.63;4980729;28;20274;-75